| time (UTC) | temp C | wind direction | speed KPH | gust KPH | rain 1hr cm | rain 24hr cm | rain mn cm | humidity % | barometer mb |
| 20260508213811 | 22 | 234 | 4.8 | 8.0 | 0.00 | 0.00 | 0.00 | 24 | 1005.8 |
| 20260508213308 | 22 | 234 | 4.8 | 8.0 | 0.00 | 0.00 | 0.00 | 24 | 1005.9 |
| 20260508212804 | 22 | 234 | 4.8 | 8.0 | 0.00 | 0.00 | 0.00 | 24 | 1005.8 |
| 20260508212300 | 22 | 234 | 4.8 | 8.0 | 0.00 | 0.00 | 0.00 | 24 | 1005.9 |
| 20260508211756 | 22 | 234 | 4.8 | 8.0 | 0.00 | 0.00 | 0.00 | 24 | 1005.8 |
| 20260508211252 | 22 | 234 | 4.8 | 8.0 | 0.00 | 0.00 | 0.00 | 24 | 1006.0 |
| 20260508210750 | 22 | 234 | 4.8 | 19.3 | 0.00 | 0.00 | 0.00 | 24 | 1006.0 |
| 20260508210246 | 23 | 244 | 9.7 | 14.5 | 0.00 | 0.00 | 0.00 | 22 | 1005.8 |
| 20260508205743 | 23 | 236 | 11.3 | 17.7 | 0.00 | 0.00 | 0.00 | 22 | 1005.9 |
| 20260508205240 | 23 | 237 | 12.9 | 17.7 | 0.00 | 0.00 | 0.00 | 22 | 1005.8 |
| 20260508204736 | 23 | 237 | 12.9 | 17.7 | 0.00 | 0.00 | 0.00 | 22 | 1006.0 |
| 20260508204233 | 22 | 249 | 6.4 | 6.4 | 0.00 | 0.00 | 0.00 | 23 | 1005.9 |
| 20260508203729 | 22 | 268 | 11.3 | 17.7 | 0.00 | 0.00 | 0.00 | 24 | 1006.0 |
| 20260508203225 | 21 | 221 | 9.7 | 9.7 | 0.00 | 0.00 | 0.00 | 25 | 1006.0 |
| 20260508202716 | 21 | 52 | 0.0 | 12.9 | 0.00 | 0.00 | 0.00 | 24 | 1006.1 |
| 20260508202213 | 21 | 258 | 8.0 | 12.9 | 0.00 | 0.00 | 0.00 | 22 | 1006.0 |
| 20260508201710 | 21 | 258 | 8.0 | 14.5 | 0.00 | 0.00 | 0.00 | 22 | 1006.0 |
| 20260508201207 | 22 | 260 | 8.0 | 9.7 | 0.00 | 0.00 | 0.00 | 23 | 1006.0 |
| 20260508200704 | 21 | 241 | 3.2 | 14.5 | 0.00 | 0.00 | 0.00 | 26 | 1006.2 |
| 20260508200200 | 21 | 256 | 17.7 | 19.3 | 0.00 | 0.00 | 0.00 | 22 | 1006.1 |
| 20260508195656 | 22 | 253 | 3.2 | 4.8 | 0.00 | 0.00 | 0.00 | 24 | 1006.3 |
| 20260508195153 | 22 | 258 | 6.4 | 12.9 | 0.00 | 0.00 | 0.00 | 23 | 1006.1 |
| 20260508194649 | 22 | 250 | 9.7 | 9.7 | 0.00 | 0.00 | 0.00 | 26 | 1006.1 |
| 20260508194146 | 22 | 250 | 9.7 | 9.7 | 0.00 | 0.00 | 0.00 | 26 | 1006.2 |
| 20260508193643 | 21 | 216 | 9.7 | 12.9 | 0.00 | 0.00 | 0.00 | 24 | 1006.2 |
| 20260508193140 | 21 | 216 | 9.7 | 12.9 | 0.00 | 0.00 | 0.00 | 24 | 1006.2 |
| 20260508192636 | 21 | 216 | 9.7 | 16.1 | 0.00 | 0.00 | 0.00 | 24 | 1006.3 |
| 20260508192134 | 22 | 253 | 11.3 | 16.1 | 0.00 | 0.00 | 0.00 | 26 | 1006.1 |
| 20260508191630 | 22 | 244 | 8.0 | 8.0 | 0.00 | 0.00 | 0.00 | 26 | 1006.3 |
| 20260508191127 | 22 | 244 | 8.0 | 8.0 | 0.00 | 0.00 | 0.00 | 26 | 1006.2 |
| 20260508190624 | 22 | 244 | 8.0 | 8.0 | 0.00 | 0.00 | 0.00 | 26 | 1006.1 |
| 20260508190120 | 22 | 244 | 8.0 | 8.0 | 0.00 | 0.00 | 0.00 | 26 | 1006.1 |
| 20260508185617 | 21 | 251 | 9.7 | 11.3 | 0.00 | 0.00 | 0.00 | 28 | 1006.2 |
| 20260508185115 | 21 | 251 | 9.7 | 11.3 | 0.00 | 0.00 | 0.00 | 28 | 1006.1 |
| 20260508184612 | 21 | 242 | 6.4 | 11.3 | 0.00 | 0.00 | 0.00 | 25 | 1006.2 |
| 20260508184109 | 22 | 239 | 9.7 | 17.7 | 0.00 | 0.00 | 0.00 | 25 | 1006.2 |
| 20260508183605 | 22 | 207 | 3.2 | 11.3 | 0.00 | 0.00 | 0.00 | 26 | 1006.2 |
| 20260508183101 | 22 | 252 | 8.0 | 9.7 | 0.00 | 0.00 | 0.00 | 25 | 1006.3 |
| 20260508182558 | 21 | 217 | 0.0 | 9.7 | 0.00 | 0.00 | 0.00 | 28 | 1006.5 |
| 20260508182056 | 22 | 237 | 4.8 | 6.4 | 0.00 | 0.00 | 0.00 | 25 | 1006.6 |
| 20260508181555 | 22 | 193 | 0.0 | 3.2 | 0.00 | 0.00 | 0.00 | 28 | 1006.3 |
| 20260508181054 | 21 | 246 | 8.0 | 8.0 | 0.00 | 0.00 | 0.00 | 27 | 1006.3 |
| 20260508180550 | 21 | 246 | 8.0 | 8.0 | 0.00 | 0.00 | 0.00 | 27 | 1006.5 |
| 20260508180046 | 21 | 24 | 1.6 | 3.2 | 0.00 | 0.00 | 0.00 | 37 | 1006.5 |
| 20260508175543 | 21 | 24 | 1.6 | 3.2 | 0.00 | 0.00 | 0.00 | 37 | 1006.5 |
| 20260508175040 | 21 | 24 | 1.6 | 3.2 | 0.00 | 0.00 | 0.00 | 37 | 1006.6 |
| 20260508174538 | 21 | 24 | 1.6 | 3.2 | 0.00 | 0.00 | 0.00 | 37 | 1006.6 |
| 20260508174035 | 20 | 254 | 8.0 | 8.0 | 0.00 | 0.00 | 0.00 | 36 | 1006.6 |
| 20260508173531 | 20 | 254 | 8.0 | 8.0 | 0.00 | 0.00 | 0.00 | 36 | 1006.6 |
| 20260508173027 | 20 | 254 | 8.0 | 8.0 | 0.00 | 0.00 | 0.00 | 36 | 1006.6 |
| 20260508172525 | 18 | 269 | 0.0 | 4.8 | 0.00 | 0.00 | 0.00 | 38 | 1006.3 |
| 20260508172021 | 18 | 269 | 0.0 | 4.8 | 0.00 | 0.00 | 0.00 | 38 | 1006.6 |
| 20260508171518 | 18 | 269 | 0.0 | 4.8 | 0.00 | 0.00 | 0.00 | 38 | 1006.6 |
| 20260508171014 | 18 | 269 | 0.0 | 4.8 | 0.00 | 0.00 | 0.00 | 38 | 1006.7 |
| 20260508170512 | 18 | 269 | 0.0 | 4.8 | 0.00 | 0.00 | 0.00 | 38 | 1006.8 |
| 20260508170009 | 17 | 98 | 3.2 | 6.4 | 0.00 | 0.00 | 0.00 | 41 | 1006.8 |
| 20260508165506 | 17 | 98 | 3.2 | 6.4 | 0.00 | 0.00 | 0.00 | 41 | 1006.8 |
| 20260508165003 | 17 | 98 | 3.2 | 6.4 | 0.00 | 0.00 | 0.00 | 41 | 1006.9 |
| 20260508164459 | -17 | 0.0 | 0.0 | 0.00 | 0.00 | 0.00 | 1007.1 | ||
| 20260508163956 | -17 | 0.0 | 0.0 | 0.00 | 0.00 | 0.00 | 1006.7 | ||
| 20260508163454 | -17 | 0.0 | 0.0 | 0.00 | 0.00 | 0.00 | 1006.9 | ||
| 20260508162949 | -17 | 0.0 | 0.0 | 0.00 | 0.00 | 0.00 | 1006.7 | ||
| 20260508162447 | -17 | 0.0 | 0.0 | 0.00 | 0.00 | 0.00 | 1006.9 | ||
| 20260508161944 | -17 | 0.0 | 0.0 | 0.00 | 0.00 | 0.00 | 1006.9 | ||
| 20260508161441 | 12 | 111 | 6.4 | 6.4 | 0.00 | 0.00 | 0.00 | 51 | 1007.1 |
| 20260508160938 | 12 | 111 | 6.4 | 6.4 | 0.00 | 0.00 | 0.00 | 51 | 1007.2 |
| 20260508160437 | 12 | 111 | 6.4 | 6.4 | 0.00 | 0.00 | 0.00 | 51 | 1007.1 |
| 20260508155933 | 12 | 111 | 6.4 | 6.4 | 0.00 | 0.00 | 0.00 | 51 | 1007.1 |
| 20260508155430 | 12 | 111 | 6.4 | 6.4 | 0.00 | 0.00 | 0.00 | 51 | 1007.1 |
| 20260508154927 | 12 | 111 | 6.4 | 6.4 | 0.00 | 0.00 | 0.00 | 51 | 1007.2 |
| 20260508154425 | 12 | 111 | 6.4 | 6.4 | 0.00 | 0.00 | 0.00 | 51 | 1007.3 |
| 20260508153921 | 12 | 111 | 6.4 | 6.4 | 0.00 | 0.00 | 0.00 | 51 | 1007.2 |
| 20260508153418 | 12 | 111 | 6.4 | 6.4 | 0.00 | 0.00 | 0.00 | 51 | 1007.2 |
| 20260508152914 | 12 | 111 | 6.4 | 6.4 | 0.00 | 0.00 | 0.00 | 51 | 1007.2 |
| 20260508152411 | 12 | 111 | 6.4 | 6.4 | 0.00 | 0.00 | 0.00 | 51 | 1007.1 |
| 20260508151907 | 12 | 111 | 6.4 | 6.4 | 0.00 | 0.00 | 0.00 | 51 | 1007.2 |
| 20260508151404 | 12 | 124 | 3.2 | 3.2 | 0.00 | 0.00 | 0.00 | 52 | 1007.2 |
| 20260508150900 | 11 | 80 | 3.2 | 4.8 | 0.00 | 0.00 | 0.00 | 55 | 1007.2 |
| 20260508150357 | 11 | 80 | 3.2 | 4.8 | 0.00 | 0.00 | 0.00 | 55 | 1007.2 |
| 20260508145853 | 11 | 80 | 3.2 | 4.8 | 0.00 | 0.00 | 0.00 | 55 | 1007.3 |
| 20260508145349 | 11 | 80 | 3.2 | 4.8 | 0.00 | 0.00 | 0.00 | 55 | 1007.3 |
| 20260508144846 | 11 | 45 | 4.8 | 4.8 | 0.00 | 0.00 | 0.00 | 55 | 1007.3 |
| 20260508144345 | 12 | 22 | 0.0 | 6.4 | 0.00 | 0.00 | 0.00 | 55 | 1007.3 |
| 20260508143842 | 10 | 86 | 6.4 | 8.0 | 0.00 | 0.00 | 0.00 | 59 | 1007.3 |
| 20260508143339 | 10 | 86 | 6.4 | 8.0 | 0.00 | 0.00 | 0.00 | 59 | 1007.2 |
| 20260508142835 | 10 | 86 | 6.4 | 8.0 | 0.00 | 0.00 | 0.00 | 59 | 1007.3 |
| 20260508142332 | 10 | 87 | 6.4 | 6.4 | 0.00 | 0.00 | 0.00 | 58 | 1007.2 |
| 20260508141828 | 11 | 173 | 0.0 | 3.2 | 0.00 | 0.00 | 0.00 | 57 | 1007.2 |
| 20260508141326 | 11 | 76 | 3.2 | 3.2 | 0.00 | 0.00 | 0.00 | 57 | 1007.3 |
| 20260508140823 | 10 | 80 | 1.6 | 3.2 | 0.00 | 0.00 | 0.00 | 61 | 1007.3 |
| 20260508140320 | 9 | 92 | 6.4 | 6.4 | 0.00 | 0.00 | 0.00 | 65 | 1007.3 |
| 20260508135815 | 8 | 76 | 0.0 | 0.0 | 0.00 | 0.00 | 0.00 | 64 | 1007.2 |
| 20260508135312 | 9 | 224 | 1.6 | 3.2 | 0.00 | 0.00 | 0.00 | 63 | 1007.2 |
| 20260508134808 | 10 | 53 | 0.0 | 0.0 | 0.00 | 0.00 | 0.00 | 58 | 1007.3 |
| 20260508134305 | 10 | 65 | 3.2 | 4.8 | 0.00 | 0.00 | 0.00 | 63 | 1006.9 |
| 20260508133802 | 7 | 83 | 1.6 | 3.2 | 0.00 | 0.00 | 0.00 | 68 | 1007.1 |
| 20260508133300 | 7 | 81 | 1.6 | 3.2 | 0.00 | 0.00 | 0.00 | 68 | 1007.1 |
| 20260508132757 | 7 | 88 | 1.6 | 1.6 | 0.00 | 0.00 | 0.00 | 68 | 1006.9 |
| 20260508132254 | 7 | 88 | 1.6 | 1.6 | 0.00 | 0.00 | 0.00 | 68 | 1007.1 |
| 20260508131750 | 7 | 88 | 1.6 | 1.6 | 0.00 | 0.00 | 0.00 | 68 | 1006.9 |
| 20260508131246 | 7 | 88 | 1.6 | 1.6 | 0.00 | 0.00 | 0.00 | 68 | 1006.8 |
| 20260508130743 | -17 | 0.0 | 0.0 | 0.00 | 0.00 | 0.00 | 1006.7 | ||
| 20260508130241 | -17 | 0.0 | 0.0 | 0.00 | 0.00 | 0.00 | 1006.6 | ||
| 20260508125736 | -17 | 0.0 | 0.0 | 0.00 | 0.00 | 0.00 | 1006.9 | ||
| 20260508125232 | -17 | 0.0 | 0.0 | 0.00 | 0.00 | 0.00 | 1006.6 | ||
| 20260508124731 | -17 | 0.0 | 0.0 | 0.00 | 0.00 | 0.00 | 1006.5 | ||
| 20260508124228 | -17 | 0.0 | 0.0 | 0.00 | 0.00 | 0.00 | 1006.3 | ||
| 20260508123726 | -17 | 0.0 | 0.0 | 0.00 | 0.00 | 0.00 | 1006.5 | ||
| 20260508123224 | -17 | 0.0 | 0.0 | 0.00 | 0.00 | 0.00 | 1006.3 | ||
| 20260508122719 | -17 | 0.0 | 0.0 | 0.00 | 0.00 | 0.00 | 1006.3 | ||
| 20260508122216 | -17 | 0.0 | 0.0 | 0.00 | 0.00 | 0.00 | 1006.3 | ||
| 20260508121714 | -17 | 0.0 | 0.0 | 0.00 | 0.00 | 0.00 | 1006.1 | ||
| 20260508121213 | -17 | 0.0 | 0.0 | 0.00 | 0.00 | 0.00 | 1006.2 | ||
| 20260508120709 | -17 | 0.0 | 0.0 | 0.00 | 0.00 | 0.00 | 1006.1 | ||
| 20260508120207 | -17 | 0.0 | 0.0 | 0.00 | 0.00 | 0.00 | 1006.1 | ||
| 20260508115705 | -17 | 0.0 | 0.0 | 0.00 | 0.00 | 0.00 | 1006.0 | ||
| 20260508115202 | -17 | 0.0 | 0.0 | 0.00 | 0.00 | 0.00 | 1006.1 | ||
| 20260508114658 | -17 | 0.0 | 0.0 | 0.00 | 0.00 | 0.00 | 1006.0 | ||
| 20260508114155 | -17 | 0.0 | 0.0 | 0.00 | 0.00 | 0.00 | 1005.9 | ||
| 20260508113652 | -17 | 0.0 | 0.0 | 0.00 | 0.00 | 0.00 | 1006.0 | ||
| 20260508113150 | -17 | 0.0 | 0.0 | 0.00 | 0.00 | 0.00 | 1005.9 | ||
| 20260508112646 | -17 | 0.0 | 0.0 | 0.00 | 0.00 | 0.00 | 1005.8 | ||
| 20260508112143 | -17 | 0.0 | 0.0 | 0.00 | 0.00 | 0.00 | 1005.9 | ||
| 20260508111639 | -17 | 0.0 | 0.0 | 0.00 | 0.00 | 0.00 | 1005.6 | ||
| 20260508111137 | -17 | 0.0 | 0.0 | 0.00 | 0.00 | 0.00 | 1005.9 | ||
| 20260508110635 | -17 | 0.0 | 0.0 | 0.00 | 0.00 | 0.00 | 1005.9 | ||
| 20260508110131 | -17 | 0.0 | 0.0 | 0.00 | 0.00 | 0.00 | 1006.0 | ||
| 20260508105626 | -17 | 0.0 | 0.0 | 0.00 | 0.00 | 0.00 | 1006.0 | ||
| 20260508105123 | -17 | 0.0 | 0.0 | 0.00 | 0.00 | 0.00 | 1006.0 | ||
| 20260508104621 | -17 | 0.0 | 0.0 | 0.00 | 0.00 | 0.00 | 1005.6 | ||
| 20260508104117 | -17 | 0.0 | 0.0 | 0.00 | 0.00 | 0.00 | 1005.4 | ||
| 20260508103615 | -17 | 0.0 | 0.0 | 0.00 | 0.00 | 0.00 | 1005.6 | ||
| 20260508103112 | -17 | 0.0 | 0.0 | 0.00 | 0.00 | 0.00 | 1005.6 | ||
| 20260508102609 | -17 | 0.0 | 0.0 | 0.00 | 0.00 | 0.00 | 1005.6 | ||
| 20260508102107 | -17 | 0.0 | 0.0 | 0.00 | 0.00 | 0.00 | 1005.8 | ||
| 20260508101604 | -17 | 0.0 | 0.0 | 0.00 | 0.00 | 0.00 | 1005.8 | ||
| 20260508101101 | -17 | 0.0 | 0.0 | 0.00 | 0.00 | 0.00 | 1005.6 | ||
| 20260508100559 | -17 | 0.0 | 0.0 | 0.00 | 0.00 | 0.00 | 1005.4 | ||
| 20260508100056 | -17 | 0.0 | 0.0 | 0.00 | 0.00 | 0.00 | 1005.8 | ||
| 20260508095553 | -17 | 0.0 | 0.0 | 0.00 | 0.00 | 0.00 | 1005.4 | ||
| 20260508095050 | -17 | 0.0 | 0.0 | 0.00 | 0.00 | 0.00 | 1005.6 | ||
| 20260508094547 | -17 | 0.0 | 0.0 | 0.00 | 0.00 | 0.00 | 1005.5 | ||
| 20260508094044 | -17 | 0.0 | 0.0 | 0.00 | 0.00 | 0.00 | 1005.4 | ||
| 20260508093541 | -17 | 0.0 | 0.0 | 0.00 | 0.00 | 0.00 | 1005.8 | ||
| 20260508093039 | -17 | 0.0 | 0.0 | 0.00 | 0.00 | 0.00 | 1005.3 | ||
| 20260508092536 | -17 | 0.0 | 0.0 | 0.00 | 0.00 | 0.00 | 1005.3 | ||
| 20260508092035 | -17 | 0.0 | 0.0 | 0.00 | 0.00 | 0.00 | 1005.5 | ||
| 20260508091531 | -17 | 0.0 | 0.0 | 0.00 | 0.00 | 0.00 | 1005.4 | ||
| 20260508091028 | 7 | 89 | 3.2 | 4.8 | 0.00 | 0.00 | 0.00 | 66 | 1005.5 |
| 20260508090526 | 7 | 89 | 3.2 | 4.8 | 0.00 | 0.00 | 0.00 | 66 | 1005.4 |
| 20260508090022 | 7 | 89 | 3.2 | 4.8 | 0.00 | 0.00 | 0.00 | 66 | 1005.6 |
| 20260508085519 | 7 | 89 | 3.2 | 4.8 | 0.00 | 0.00 | 0.00 | 66 | 1005.4 |
| 20260508085016 | 7 | 89 | 3.2 | 4.8 | 0.00 | 0.00 | 0.00 | 66 | 1005.6 |
| 20260508084513 | 7 | 89 | 3.2 | 4.8 | 0.00 | 0.00 | 0.00 | 66 | 1005.6 |
| 20260508084010 | 7 | 89 | 3.2 | 4.8 | 0.00 | 0.00 | 0.00 | 66 | 1005.5 |
| 20260508083507 | 7 | 89 | 3.2 | 4.8 | 0.00 | 0.00 | 0.00 | 66 | 1005.6 |
| 20260508083004 | 7 | 89 | 3.2 | 4.8 | 0.00 | 0.00 | 0.00 | 66 | 1005.4 |
| 20260508082459 | 7 | 89 | 3.2 | 4.8 | 0.00 | 0.00 | 0.00 | 66 | 1005.5 |
| 20260508081957 | 7 | 89 | 3.2 | 4.8 | 0.00 | 0.00 | 0.00 | 66 | 1005.6 |
| 20260508081453 | 7 | 89 | 3.2 | 4.8 | 0.00 | 0.00 | 0.00 | 66 | 1005.4 |
| 20260508080944 | 7 | 91 | 3.2 | 3.2 | 0.00 | 0.00 | 0.00 | 66 | 1005.5 |
| 20260508080443 | 7 | 64 | 4.8 | 4.8 | 0.00 | 0.00 | 0.00 | 66 | 1005.5 |
| 20260508075939 | 7 | 212 | 0.0 | 0.0 | 0.00 | 0.00 | 0.00 | 66 | 1005.4 |
| 20260508075436 | 7 | 217 | 0.0 | 1.6 | 0.00 | 0.00 | 0.00 | 66 | 1005.5 |
| 20260508074934 | 7 | 112 | 3.2 | 3.2 | 0.00 | 0.00 | 0.00 | 66 | 1005.6 |
| 20260508074431 | 7 | 112 | 3.2 | 3.2 | 0.00 | 0.00 | 0.00 | 66 | 1005.4 |
| 20260508073928 | 7 | 65 | 3.2 | 6.4 | 0.00 | 0.00 | 0.00 | 66 | 1005.5 |
| 20260508073426 | 7 | 72 | 4.8 | 4.8 | 0.00 | 0.00 | 0.00 | 65 | 1005.3 |
| 20260508072922 | 7 | 72 | 1.6 | 3.2 | 0.00 | 0.00 | 0.00 | 64 | 1005.5 |
| 20260508072418 | -17 | 0.0 | 0.0 | 0.00 | 0.00 | 0.00 | 1005.5 | ||
| 20260508071916 | -17 | 0.0 | 0.0 | 0.00 | 0.00 | 0.00 | 1005.4 | ||
| 20260508071414 | 10 | 74 | 3.2 | 3.2 | 0.00 | 0.00 | 0.00 | 57 | 1005.8 |
| 20260508070911 | 10 | 74 | 3.2 | 3.2 | 0.00 | 0.00 | 0.00 | 57 | 1005.5 |
| 20260508070409 | 10 | 74 | 3.2 | 3.2 | 0.00 | 0.00 | 0.00 | 57 | 1005.5 |
| 20260508065907 | 10 | 74 | 3.2 | 3.2 | 0.00 | 0.00 | 0.00 | 57 | 1005.5 |
| 20260508065405 | 10 | 74 | 3.2 | 3.2 | 0.00 | 0.00 | 0.00 | 57 | 1005.5 |
| 20260508064903 | 10 | 74 | 3.2 | 3.2 | 0.00 | 0.00 | 0.00 | 57 | 1005.5 |
| 20260508064359 | 10 | 74 | 3.2 | 3.2 | 0.00 | 0.00 | 0.00 | 57 | 1005.6 |
| 20260508063857 | 10 | 74 | 3.2 | 3.2 | 0.00 | 0.00 | 0.00 | 57 | 1005.8 |
| 20260508063355 | 10 | 74 | 3.2 | 3.2 | 0.00 | 0.00 | 0.00 | 57 | 1005.4 |
| 20260508062851 | 10 | 74 | 3.2 | 3.2 | 0.00 | 0.00 | 0.00 | 57 | 1005.4 |
| 20260508062343 | 10 | 74 | 3.2 | 3.2 | 0.00 | 0.00 | 0.00 | 57 | 1005.2 |
| 20260508061840 | 10 | 74 | 3.2 | 3.2 | 0.00 | 0.00 | 0.00 | 57 | 1005.0 |
| 20260508061338 | -17 | 0.0 | 0.0 | 0.00 | 0.00 | 0.00 | 1005.0 | ||
| 20260508060834 | 10 | 42 | 3.2 | 4.8 | 0.00 | 0.00 | 0.00 | 56 | 1005.2 |
| 20260508060332 | 10 | 42 | 3.2 | 4.8 | 0.00 | 0.00 | 0.00 | 56 | 1005.2 |
| 20260508055826 | 10 | 42 | 3.2 | 4.8 | 0.00 | 0.00 | 0.00 | 56 | 1004.9 |
| 20260508055325 | 10 | 42 | 3.2 | 4.8 | 0.00 | 0.00 | 0.00 | 56 | 1005.0 |
| 20260508054821 | 10 | 42 | 3.2 | 4.8 | 0.00 | 0.00 | 0.00 | 56 | 1005.2 |
| 20260508054319 | 10 | 42 | 3.2 | 4.8 | 0.00 | 0.00 | 0.00 | 56 | 1005.2 |
| 20260508053815 | 10 | 42 | 3.2 | 4.8 | 0.00 | 0.00 | 0.00 | 56 | 1004.9 |
| 20260508053313 | 10 | 42 | 3.2 | 4.8 | 0.00 | 0.00 | 0.00 | 56 | 1005.0 |
| 20260508052810 | 10 | 42 | 3.2 | 4.8 | 0.00 | 0.00 | 0.00 | 56 | 1004.9 |
| 20260508052307 | 10 | 42 | 3.2 | 4.8 | 0.00 | 0.00 | 0.00 | 56 | 1004.8 |
| 20260508051803 | 10 | 42 | 3.2 | 4.8 | 0.00 | 0.00 | 0.00 | 56 | 1005.0 |
| 20260508051258 | 10 | 42 | 3.2 | 4.8 | 0.00 | 0.00 | 0.00 | 56 | 1004.9 |
| 20260508050755 | 10 | 35 | 6.4 | 6.4 | 0.00 | 0.00 | 0.00 | 57 | 1004.8 |
| 20260508050253 | 10 | 35 | 6.4 | 6.4 | 0.00 | 0.00 | 0.00 | 57 | 1004.7 |
| 20260508045748 | 12 | 85 | 1.6 | 3.2 | 0.00 | 0.00 | 0.00 | 47 | 1004.8 |
| 20260508045246 | 12 | 85 | 1.6 | 3.2 | 0.00 | 0.00 | 0.00 | 47 | 1004.9 |
| 20260508044743 | 12 | 85 | 1.6 | 3.2 | 0.00 | 0.00 | 0.00 | 47 | 1005.2 |
| 20260508044240 | 12 | 85 | 1.6 | 3.2 | 0.00 | 0.00 | 0.00 | 47 | 1005.0 |
| 20260508043736 | 12 | 85 | 1.6 | 3.2 | 0.00 | 0.00 | 0.00 | 47 | 1004.7 |
| 20260508043233 | 12 | 65 | 1.6 | 4.8 | 0.00 | 0.00 | 0.00 | 51 | 1004.8 |
| 20260508042730 | 12 | 65 | 1.6 | 4.8 | 0.00 | 0.00 | 0.00 | 51 | 1004.8 |
| 20260508042227 | 12 | 65 | 1.6 | 4.8 | 0.00 | 0.00 | 0.00 | 51 | 1004.8 |
| 20260508041724 | 12 | 65 | 1.6 | 4.8 | 0.00 | 0.00 | 0.00 | 51 | 1004.8 |
| 20260508041220 | 12 | 65 | 1.6 | 4.8 | 0.00 | 0.00 | 0.00 | 51 | 1004.9 |
| 20260508040717 | 12 | 84 | 1.6 | 3.2 | 0.00 | 0.00 | 0.00 | 50 | 1004.6 |
| 20260508040214 | 13 | 111 | 3.2 | 3.2 | 0.00 | 0.00 | 0.00 | 46 | 1004.8 |
| 20260508035712 | 13 | 111 | 3.2 | 3.2 | 0.00 | 0.00 | 0.00 | 46 | 1004.7 |
| 20260508035209 | 13 | 111 | 3.2 | 3.2 | 0.00 | 0.00 | 0.00 | 46 | 1004.8 |
| 20260508034705 | 13 | 87 | 0.0 | 0.0 | 0.00 | 0.00 | 0.00 | 44 | 1004.3 |
| 20260508034203 | 14 | 257 | 1.6 | 4.8 | 0.00 | 0.00 | 0.00 | 41 | 1004.6 |
| 20260508033700 | 15 | 89 | 0.0 | 3.2 | 0.00 | 0.00 | 0.00 | 37 | 1004.4 |
| 20260508033158 | 15 | 69 | 0.0 | 3.2 | 0.00 | 0.00 | 0.00 | 37 | 1004.3 |
| 20260508032655 | 15 | 69 | 0.0 | 4.8 | 0.00 | 0.00 | 0.00 | 40 | 1004.3 |
| 20260508032152 | 15 | 163 | 0.0 | 3.2 | 0.00 | 0.00 | 0.00 | 38 | 1004.3 |
| 20260508031649 | 15 | 74 | 4.8 | 8.0 | 0.00 | 0.00 | 0.00 | 40 | 1004.3 |
| 20260508031145 | 15 | 61 | 0.0 | 0.0 | 0.00 | 0.00 | 0.00 | 39 | 1004.3 |
| 20260508030642 | 16 | 344 | 0.0 | 1.6 | 0.00 | 0.00 | 0.00 | 35 | 1004.3 |
| 20260508030140 | 16 | 38 | 6.4 | 8.0 | 0.00 | 0.00 | 0.00 | 35 | 1004.1 |
| 20260508025635 | 16 | 29 | 1.6 | 6.4 | 0.00 | 0.00 | 0.00 | 35 | 1004.1 |
| 20260508025133 | 16 | 79 | 3.2 | 6.4 | 0.00 | 0.00 | 0.00 | 34 | 1004.1 |
| 20260508024628 | 16 | 43 | 1.6 | 4.8 | 0.00 | 0.00 | 0.00 | 35 | 1004.1 |
| 20260508024126 | 16 | 26 | 4.8 | 8.0 | 0.00 | 0.00 | 0.00 | 34 | 1004.0 |
| 20260508023622 | 16 | 46 | 3.2 | 4.8 | 0.00 | 0.00 | 0.00 | 35 | 1004.0 |
| 20260508023120 | 16 | 32 | 3.2 | 4.8 | 0.00 | 0.00 | 0.00 | 34 | 1003.9 |
| 20260508022615 | 16 | 87 | 1.6 | 1.6 | 0.00 | 0.00 | 0.00 | 35 | 1003.9 |
| 20260508022113 | 17 | 89 | 1.6 | 3.2 | 0.00 | 0.00 | 0.00 | 33 | 1003.9 |
| 20260508021608 | 18 | 0 | 0.0 | 3.2 | 0.00 | 0.00 | 0.00 | 32 | 1003.9 |
| 20260508021104 | 18 | 0 | 0.0 | 3.2 | 0.00 | 0.00 | 0.00 | 32 | 1003.9 |
| 20260508020602 | 18 | 0 | 0.0 | 3.2 | 0.00 | 0.00 | 0.00 | 32 | 1004.0 |
| 20260508020059 | 18 | 0 | 0.0 | 3.2 | 0.00 | 0.00 | 0.00 | 32 | 1003.7 |
| 20260508015557 | 18 | 0 | 0.0 | 3.2 | 0.00 | 0.00 | 0.00 | 32 | 1003.9 |
| 20260508015054 | 18 | 39 | 0.0 | 1.6 | 0.00 | 0.00 | 0.00 | 31 | 1003.7 |
| 20260508014550 | 18 | 39 | 0.0 | 3.2 | 0.00 | 0.00 | 0.00 | 31 | 1003.7 |
| 20260508014046 | 20 | 359 | 1.6 | 3.2 | 0.00 | 0.00 | 0.00 | 28 | 1003.6 |
| 20260508013542 | 20 | 359 | 1.6 | 3.2 | 0.00 | 0.00 | 0.00 | 28 | 1003.9 |
| 20260508013039 | 20 | 359 | 1.6 | 3.2 | 0.00 | 0.00 | 0.00 | 28 | 1003.7 |
| 20260508012537 | 20 | 359 | 1.6 | 3.2 | 0.00 | 0.00 | 0.00 | 28 | 1003.9 |
| 20260508012034 | 20 | 359 | 1.6 | 3.2 | 0.00 | 0.00 | 0.00 | 28 | 1003.7 |
| 20260508011533 | 20 | 105 | 1.6 | 3.2 | 0.00 | 0.00 | 0.00 | 28 | 1003.6 |
| 20260508011030 | 20 | 184 | 0.0 | 11.3 | 0.00 | 0.00 | 0.00 | 28 | 1003.9 |
| 20260508010526 | 20 | 49 | 3.2 | 3.2 | 0.00 | 0.00 | 0.00 | 27 | 1003.7 |
| 20260508010024 | 21 | 235 | 3.2 | 4.8 | 0.00 | 0.00 | 0.00 | 27 | 1004.0 |
| 20260508005520 | 22 | 167 | 0.0 | 1.6 | 0.00 | 0.00 | 0.00 | 25 | 1004.0 |
| 20260508005017 | 21 | 231 | 3.2 | 9.7 | 0.00 | 0.00 | 0.00 | 26 | 1004.1 |
| 20260508004513 | 21 | 231 | 3.2 | 9.7 | 0.00 | 0.00 | 0.00 | 26 | 1004.0 |
| 20260508004010 | 21 | 231 | 3.2 | 9.7 | 0.00 | 0.00 | 0.00 | 26 | 1003.7 |
| 20260508003506 | 21 | 233 | 3.2 | 6.4 | 0.00 | 0.00 | 0.00 | 24 | 1004.0 |
| 20260508003005 | 21 | 278 | 3.2 | 9.7 | 0.00 | 0.00 | 0.00 | 27 | 1004.1 |
| 20260508002500 | 21 | 218 | 4.8 | 6.4 | 0.00 | 0.00 | 0.00 | 26 | 1004.0 |
| 20260508001956 | 21 | 242 | 3.2 | 3.2 | 0.00 | 0.00 | 0.00 | 30 | 1004.2 |
| 20260508001453 | 20 | 223 | 9.7 | 9.7 | 0.00 | 0.00 | 0.00 | 26 | 1004.0 |
| 20260508000949 | 20 | 249 | 0.0 | 4.8 | 0.00 | 0.00 | 0.00 | 26 | 1004.2 |
| 20260508000444 | 20 | 239 | 6.4 | 9.7 | 0.00 | 0.00 | 0.00 | 28 | 1004.2 |
| 20260507235942 | 21 | 248 | 8.0 | 9.7 | 0.00 | 0.00 | 0.00 | 27 | 1004.2 |
| 20260507235439 | 21 | 248 | 8.0 | 9.7 | 0.00 | 0.00 | 0.00 | 27 | 1004.2 |
| 20260507234937 | 21 | 224 | 3.2 | 9.7 | 0.00 | 0.00 | 0.00 | 28 | 1004.4 |
| 20260507234433 | 21 | 234 | 9.7 | 9.7 | 0.00 | 0.00 | 0.00 | 28 | 1004.3 |
| 20260507233929 | 21 | 234 | 9.7 | 9.7 | 0.00 | 0.00 | 0.00 | 28 | 1004.8 |
| 20260507233426 | 21 | 234 | 9.7 | 9.7 | 0.00 | 0.00 | 0.00 | 28 | 1004.4 |
| 20260507232925 | 21 | 142 | 6.4 | 6.4 | 0.00 | 0.00 | 0.00 | 26 | 1004.4 |
| 20260507232420 | 21 | 307 | 1.6 | 8.0 | 0.00 | 0.00 | 0.00 | 27 | 1004.6 |
| 20260507231918 | 22 | 350 | 0.0 | 3.2 | 0.00 | 0.00 | 0.00 | 25 | 1004.6 |
| 20260507231414 | 22 | 350 | 0.0 | 3.2 | 0.00 | 0.00 | 0.00 | 25 | 1004.7 |
| 20260507230910 | 22 | 350 | 0.0 | 3.2 | 0.00 | 0.00 | 0.00 | 25 | 1004.8 |
| 20260507230403 | 22 | 350 | 0.0 | 3.2 | 0.00 | 0.00 | 0.00 | 25 | 1004.7 |
| 20260507225902 | 22 | 73 | 0.0 | 4.8 | 0.00 | 0.00 | 0.00 | 25 | 1004.6 |
| 20260507225353 | 22 | 235 | 9.7 | 9.7 | 0.00 | 0.00 | 0.00 | 25 | 1004.8 |
| 20260507224849 | 22 | 127 | 1.6 | 6.4 | 0.00 | 0.00 | 0.00 | 25 | 1004.8 |
| 20260507224346 | 22 | 144 | 3.2 | 12.9 | 0.00 | 0.00 | 0.00 | 26 | 1004.9 |
| 20260507223842 | 22 | 235 | 4.8 | 9.7 | 0.00 | 0.00 | 0.00 | 27 | 1004.8 |
| 20260507223339 | 22 | 217 | 6.4 | 9.7 | 0.00 | 0.00 | 0.00 | 28 | 1004.7 |
| 20260507222836 | 21 | 240 | 19.3 | 25.7 | 0.00 | 0.00 | 0.00 | 27 | 1004.9 |
| 20260507222332 | 21 | 257 | 9.7 | 19.3 | 0.00 | 0.00 | 0.00 | 28 | 1004.8 |
| 20260507221829 | 21 | 255 | 4.8 | 14.5 | 0.00 | 0.00 | 0.00 | 29 | 1004.9 |
| 20260507221326 | 23 | 114 | 3.2 | 11.3 | 0.00 | 0.00 | 0.00 | 26 | 1004.8 |
| 20260507220821 | 22 | 240 | 4.8 | 6.4 | 0.00 | 0.00 | 0.00 | 27 | 1004.9 |
| 20260507220320 | 21 | 241 | 8.0 | 8.0 | 0.00 | 0.00 | 0.00 | 28 | 1005.0 |
| 20260507215816 | 22 | 352 | 3.2 | 12.9 | 0.00 | 0.00 | 0.00 | 28 | 1004.9 |
| 20260507215313 | 22 | 257 | 4.8 | 8.0 | 0.00 | 0.00 | 0.00 | 25 | 1005.2 |
| 20260507214811 | 22 | 221 | 1.6 | 8.0 | 0.00 | 0.00 | 0.00 | 30 | 1005.0 |
| 20260507214308 | 22 | 284 | 3.2 | 9.7 | 0.00 | 0.00 | 0.00 | 29 | 1005.0 |